createdAt,value
2022-08-08T00:00:50.129Z,37.50
2022-08-08T00:00:55.313Z,37.92
2022-08-08T00:01:16.438Z,37.75
2022-08-08T00:02:31.471Z,39.77
2022-08-08T00:03:28.485Z,38.76
2022-08-08T00:04:16.575Z,38.61
2022-08-08T00:05:17.358Z,39.33
2022-08-08T00:06:16.402Z,39.86
2022-08-08T00:07:16.347Z,40.37
2022-08-08T00:08:15.337Z,38.21
2022-08-08T00:09:15.944Z,44.10
2022-08-08T00:10:15.362Z,40.60
2022-08-08T00:11:15.406Z,40.60
2022-08-08T00:12:15.338Z,38.72
2022-08-08T00:13:20.763Z,39.83
2022-08-08T00:14:54.891Z,38.19
2022-08-08T00:15:23.852Z,38.15
2022-08-08T00:16:16.326Z,38.83
2022-08-08T00:17:23.528Z,38.16
2022-08-08T00:18:16.279Z,38.24
2022-08-08T00:19:15.267Z,39.08
2022-08-08T00:20:15.289Z,38.61
2022-08-08T00:21:16.533Z,38.80
2022-08-08T00:22:15.298Z,39.07
2022-08-08T00:23:15.243Z,39.06
2022-08-08T00:24:15.263Z,41.12
2022-08-08T00:25:15.236Z,38.06
2022-08-08T00:26:15.228Z,38.09
2022-08-08T00:27:16.272Z,42.00
2022-08-08T00:28:34.414Z,38.93
2022-08-08T00:29:44.394Z,39.88
2022-08-08T00:30:17.548Z,38.36
2022-08-08T00:32:15.550Z,38.64
2022-08-08T00:32:34.412Z,38.43
2022-08-08T00:33:16.214Z,42.00
2022-08-08T00:34:18.593Z,38.60
2022-08-08T00:35:18.797Z,37.94
2022-08-08T00:36:16.143Z,38.10
2022-08-08T00:37:45.287Z,38.91
2022-08-08T00:38:16.818Z,39.20
2022-08-08T00:41:05.705Z,38.40
2022-08-08T00:41:11.789Z,38.39
2022-08-08T00:41:16.195Z,38.12
2022-08-08T00:42:30.311Z,38.07
2022-08-08T00:43:19.775Z,38.20
2022-08-08T00:44:15.126Z,38.02
2022-08-08T00:45:21.545Z,38.03
2022-08-08T00:46:17.271Z,38.57
2022-08-08T00:47:23.196Z,41.27
2022-08-08T00:48:30.034Z,39.94
2022-08-08T00:49:22.869Z,39.48
2022-08-08T00:50:15.047Z,38.07
2022-08-08T00:51:16.098Z,41.16
2022-08-08T00:52:38.885Z,39.42
2022-08-08T00:53:16.152Z,38.26
2022-08-08T00:54:15.915Z,38.03
2022-08-08T00:55:16.802Z,38.18
2022-08-08T00:56:16.519Z,38.16
2022-08-08T00:57:19.739Z,40.68
2022-08-08T00:58:15.978Z,43.64
2022-08-08T00:59:14.999Z,40.32
2022-08-08T01:00:16.099Z,39.58
2022-08-08T01:01:15.918Z,39.83
2022-08-08T01:02:34.633Z,38.55
2022-08-08T01:04:02.837Z,38.23
2022-08-08T01:04:15.932Z,38.29
2022-08-08T01:05:41.846Z,38.18
2022-08-08T01:06:16.245Z,37.93
2022-08-08T01:07:14.935Z,38.29
2022-08-08T01:08:14.914Z,38.93
2022-08-08T01:09:36.336Z,40.49
2022-08-08T01:10:15.907Z,39.81
2022-08-08T01:11:14.930Z,38.93
2022-08-08T01:12:14.955Z,38.96
2022-08-08T01:13:15.230Z,38.94
2022-08-08T01:14:16.538Z,38.52
2022-08-08T01:15:26.099Z,39.73
2022-08-08T01:16:16.951Z,40.81
2022-08-08T01:17:14.869Z,42.33
2022-08-08T01:18:16.311Z,41.91
2022-08-08T01:19:42.354Z,39.64
2022-08-08T01:20:15.821Z,38.69
2022-08-08T01:21:15.828Z,38.92
2022-08-08T01:22:23.607Z,39.72
2022-08-08T01:23:15.908Z,40.08
2022-08-08T01:24:16.880Z,38.70
2022-08-08T01:25:16.723Z,38.45
2022-08-08T01:26:14.778Z,38.89
2022-08-08T01:27:16.067Z,40.40
2022-08-08T01:28:17.906Z,39.23
2022-08-08T01:29:14.774Z,40.42
2022-08-08T01:30:14.745Z,38.70
2022-08-08T01:32:02.738Z,38.59
2022-08-08T01:32:17.520Z,38.74
2022-08-08T01:33:23.969Z,39.35
2022-08-08T01:34:15.717Z,39.38
2022-08-08T01:35:14.716Z,38.21
2022-08-08T01:36:14.719Z,40.47
2022-08-08T01:37:17.576Z,39.75
2022-08-08T01:38:14.721Z,40.45
2022-08-08T01:39:23.446Z,38.66
2022-08-08T01:40:15.749Z,38.34
2022-08-08T01:41:15.894Z,39.19
2022-08-08T01:42:15.035Z,38.83
2022-08-08T01:43:14.701Z,38.57
2022-08-08T01:44:14.658Z,40.12
2022-08-08T01:45:14.650Z,38.81
2022-08-08T01:46:14.649Z,40.23
2022-08-08T01:48:13.804Z,38.91
2022-08-08T01:48:30.354Z,39.75
2022-08-08T01:49:23.336Z,41.03
2022-08-08T01:50:17.075Z,40.93
2022-08-08T01:51:30.227Z,39.31
2022-08-08T01:53:04.095Z,38.74
2022-08-08T01:55:19.229Z,38.72
2022-08-08T01:55:45.634Z,38.43
2022-08-08T01:56:26.102Z,39.13
2022-08-08T01:56:30.579Z,42.54
2022-08-08T01:57:17.252Z,39.67
2022-08-08T01:58:15.547Z,38.55
2022-08-08T01:59:14.595Z,38.32
2022-08-08T02:00:14.549Z,38.48
2022-08-08T02:01:15.936Z,40.50
2022-08-08T02:02:35.047Z,40.29
2022-08-08T02:03:54.470Z,40.47
2022-08-08T02:04:15.668Z,38.73
2022-08-08T02:05:14.511Z,38.89
2022-08-08T02:06:31.822Z,42.52
2022-08-08T02:07:15.514Z,40.11
2022-08-08T02:08:14.492Z,40.08
2022-08-08T02:09:17.450Z,38.50
2022-08-08T02:10:14.521Z,39.14
2022-08-08T02:11:23.503Z,38.68
2022-08-08T02:12:15.467Z,38.85
2022-08-08T02:13:52.278Z,39.99
2022-08-08T02:14:15.446Z,39.25
2022-08-08T02:15:14.479Z,40.68
2022-08-08T02:16:21.386Z,40.66
2022-08-08T02:17:20.227Z,40.08
2022-08-08T02:18:14.420Z,39.69
2022-08-08T02:19:41.609Z,39.11
2022-08-08T02:20:59.763Z,39.23
2022-08-08T02:21:18.178Z,39.30
2022-08-08T02:22:15.377Z,39.71
2022-08-08T02:23:16.268Z,39.52
2022-08-08T02:24:14.822Z,40.28
2022-08-08T02:25:15.030Z,39.58
2022-08-08T02:26:15.919Z,39.86
2022-08-08T02:27:14.355Z,39.22
2022-08-08T02:28:14.348Z,38.91
2022-08-08T02:29:18.685Z,39.99
2022-08-08T02:30:21.619Z,38.63
2022-08-08T02:31:43.380Z,41.44
2022-08-08T02:32:22.432Z,40.33
2022-08-08T02:33:15.315Z,40.43
2022-08-08T02:34:14.969Z,39.82
2022-08-08T02:35:15.291Z,39.30
2022-08-08T02:36:16.494Z,39.27
2022-08-08T02:37:52.610Z,38.95
2022-08-08T02:38:15.318Z,41.49
2022-08-08T02:39:40.451Z,41.14
2022-08-08T02:40:15.291Z,41.64
2022-08-08T02:41:17.715Z,39.52
2022-08-08T02:42:14.273Z,39.83
2022-08-08T02:44:37.207Z,40.47
2022-08-08T02:44:42.734Z,41.08
2022-08-08T02:45:18.831Z,41.44
2022-08-08T02:46:14.209Z,40.83
2022-08-08T02:47:16.802Z,39.43
2022-08-08T02:48:14.800Z,40.85
2022-08-08T02:49:14.218Z,39.01
2022-08-08T02:50:17.751Z,40.61
2022-08-08T02:51:14.186Z,40.20
2022-08-08T02:52:35.180Z,42.76
2022-08-08T02:53:15.230Z,39.58
2022-08-08T02:54:14.237Z,40.88
2022-08-08T02:55:19.985Z,41.77
2022-08-08T02:56:15.158Z,41.33
2022-08-08T02:57:17.260Z,42.62
2022-08-08T02:58:15.156Z,42.31
2022-08-08T02:59:25.853Z,41.63
2022-08-08T03:00:31.756Z,41.44
2022-08-08T03:01:15.369Z,42.34
2022-08-08T03:02:20.127Z,41.68
2022-08-08T03:03:15.096Z,42.55
2022-08-08T03:05:04.803Z,40.05
2022-08-08T03:05:15.128Z,41.04
2022-08-08T03:06:34.580Z,42.42
2022-08-08T03:07:15.115Z,41.49
2022-08-08T03:08:14.053Z,42.12
2022-08-08T03:09:14.078Z,40.57
2022-08-08T03:10:31.650Z,41.17
2022-08-08T03:11:25.848Z,43.11
2022-08-08T03:12:15.026Z,42.93
2022-08-08T03:13:34.014Z,41.50
2022-08-08T03:16:00.165Z,41.41
2022-08-08T03:16:01.581Z,42.60
2022-08-08T03:16:34.437Z,39.83
2022-08-08T03:17:20.100Z,41.72
2022-08-08T03:18:14.991Z,42.03
2022-08-08T03:19:19.864Z,43.94
2022-08-08T03:20:14.977Z,42.61
2022-08-08T03:21:14.475Z,42.66
2022-08-08T03:22:38.534Z,41.48
2022-08-08T03:23:17.871Z,45.29
2022-08-08T03:24:15.691Z,43.57
2022-08-08T03:25:17.974Z,43.75
2022-08-08T03:26:13.973Z,41.05
2022-08-08T03:27:13.940Z,42.53
2022-08-08T03:28:13.950Z,42.96
2022-08-08T03:29:18.604Z,42.11
2022-08-08T03:30:15.294Z,42.57
2022-08-08T03:31:24.943Z,45.88
2022-08-08T03:32:14.936Z,43.01
2022-08-08T03:33:55.815Z,44.39
2022-08-08T03:34:14.886Z,43.35
2022-08-08T03:35:13.868Z,44.19
2022-08-08T03:36:13.854Z,43.99
2022-08-08T03:37:59.145Z,44.86
2022-08-08T03:38:55.673Z,41.39
2022-08-08T03:39:16.033Z,42.06
2022-08-08T03:40:29.722Z,43.31
2022-08-08T03:42:13.187Z,40.45
2022-08-08T03:42:29.893Z,43.55
2022-08-08T03:43:19.878Z,42.45
2022-08-08T03:44:13.797Z,42.22
2022-08-08T03:46:05.261Z,43.81
2022-08-08T03:46:14.796Z,43.97
2022-08-08T03:47:20.042Z,42.48
2022-08-08T03:48:21.299Z,42.34
2022-08-08T03:49:58.887Z,41.89
2022-08-08T03:50:14.761Z,43.26
2022-08-08T03:51:14.764Z,40.85
2022-08-08T03:52:14.094Z,42.79
2022-08-08T03:53:13.749Z,42.87
2022-08-08T03:54:15.658Z,43.54
2022-08-08T03:55:55.542Z,42.08
2022-08-08T03:56:31.656Z,41.06
2022-08-08T03:58:33.453Z,42.46
2022-08-08T03:58:34.371Z,44.01
2022-08-08T03:59:23.156Z,44.14
2022-08-08T04:00:18.588Z,43.67
2022-08-08T04:01:23.397Z,43.94
2022-08-08T04:02:33.016Z,41.89
2022-08-08T04:03:15.750Z,41.24
2022-08-08T04:04:13.759Z,43.02
2022-08-08T04:05:13.693Z,42.90
2022-08-08T04:06:14.644Z,42.63
2022-08-08T04:07:16.336Z,44.40
2022-08-08T04:08:13.644Z,43.17
2022-08-08T04:09:14.630Z,41.89
2022-08-08T04:10:13.665Z,42.67
2022-08-08T04:11:17.832Z,45.26
2022-08-08T04:12:15.988Z,44.75
2022-08-08T04:13:18.218Z,45.74
2022-08-08T04:14:34.523Z,42.92
2022-08-08T04:15:14.634Z,44.31
2022-08-08T04:16:13.585Z,44.57
2022-08-08T04:17:22.511Z,45.55
2022-08-08T04:18:16.575Z,44.42
2022-08-08T04:19:25.122Z,44.42
2022-08-08T04:20:14.723Z,45.54
2022-08-08T04:21:13.671Z,43.00
2022-08-08T04:22:16.644Z,46.53
2022-08-08T04:23:15.297Z,43.68
2022-08-08T04:24:28.529Z,45.16
2022-08-08T04:25:15.528Z,44.49
2022-08-08T04:26:13.571Z,45.77
2022-08-08T04:27:19.615Z,46.07
2022-08-08T04:28:40.087Z,43.84
2022-08-08T04:29:15.125Z,45.19
2022-08-08T04:30:19.170Z,44.82
2022-08-08T04:31:30.757Z,46.43
2022-08-08T04:32:30.947Z,44.74
2022-08-08T04:33:15.768Z,43.16
2022-08-08T04:34:13.463Z,42.90
2022-08-08T04:35:13.605Z,43.81
2022-08-08T04:36:13.451Z,45.11
2022-08-08T04:37:13.560Z,46.61
2022-08-08T04:38:21.152Z,42.65
2022-08-08T04:40:04.757Z,45.78
2022-08-08T04:40:15.478Z,45.90
2022-08-08T04:41:17.899Z,44.42
2022-08-08T04:42:15.908Z,42.37
2022-08-08T04:43:13.402Z,43.06
2022-08-08T04:44:13.390Z,47.88
2022-08-08T04:45:13.375Z,47.00
2022-08-08T04:46:14.562Z,45.90
2022-08-08T04:47:13.477Z,44.06
2022-08-08T04:48:14.898Z,44.91
2022-08-08T04:49:13.362Z,43.85
2022-08-08T04:50:24.334Z,43.43
2022-08-08T04:51:23.367Z,44.30
2022-08-08T04:52:14.335Z,45.61
2022-08-08T04:53:13.988Z,43.78
2022-08-08T04:54:38.561Z,43.45
2022-08-08T04:55:14.359Z,44.60
2022-08-08T04:56:13.300Z,44.34
2022-08-08T04:57:13.308Z,43.48
2022-08-08T04:58:13.283Z,45.37
2022-08-08T04:59:13.325Z,44.75
2022-08-08T05:00:13.265Z,45.40
2022-08-08T05:01:14.283Z,44.32
2022-08-08T05:02:13.572Z,43.50
2022-08-08T05:03:13.267Z,44.67
2022-08-08T05:04:14.373Z,43.76
2022-08-08T05:05:16.231Z,43.98
2022-08-08T05:06:25.900Z,41.32
2022-08-08T05:07:15.109Z,41.85
2022-08-08T05:08:13.209Z,41.68
2022-08-08T05:09:13.208Z,43.19
2022-08-08T05:10:13.310Z,44.70
2022-08-08T05:11:17.214Z,42.53
2022-08-08T05:12:30.843Z,44.62
2022-08-08T05:13:17.844Z,44.30
2022-08-08T05:14:14.749Z,43.75
2022-08-08T05:15:13.748Z,45.38
2022-08-08T05:16:54.354Z,43.91
2022-08-08T05:17:14.148Z,42.93
2022-08-08T05:18:13.137Z,43.79
2022-08-08T05:20:04.122Z,42.79
2022-08-08T05:20:15.283Z,43.87
2022-08-08T05:21:14.678Z,43.81
2022-08-08T05:22:14.108Z,44.05
2022-08-08T05:23:13.107Z,43.56
2022-08-08T05:24:13.134Z,43.17
2022-08-08T05:25:13.092Z,43.61
2022-08-08T05:26:14.131Z,44.10
2022-08-08T05:27:13.081Z,42.64
2022-08-08T05:28:13.067Z,44.57
2022-08-08T05:29:13.062Z,44.76
2022-08-08T05:30:13.048Z,42.75
2022-08-08T05:32:02.565Z,44.37
2022-08-08T05:32:14.031Z,46.77
2022-08-08T05:33:13.164Z,45.04
2022-08-08T05:34:13.013Z,44.25
2022-08-08T05:35:14.581Z,44.82
2022-08-08T05:36:25.217Z,43.17
2022-08-08T05:37:18.774Z,41.38
2022-08-08T05:38:30.589Z,43.79
2022-08-08T05:39:14.041Z,44.46
2022-08-08T05:40:12.978Z,43.48
2022-08-08T05:41:12.967Z,43.80
2022-08-08T05:42:12.997Z,43.54
2022-08-08T05:43:15.518Z,43.92
2022-08-08T05:44:14.459Z,42.84
2022-08-08T05:45:30.904Z,41.90
2022-08-08T05:46:13.941Z,43.96
2022-08-08T05:47:14.297Z,47.88
2022-08-08T05:48:14.795Z,43.53
2022-08-08T05:49:12.917Z,44.60
2022-08-08T05:50:12.923Z,44.22
2022-08-08T05:51:15.803Z,46.25
2022-08-08T05:52:12.890Z,42.46
2022-08-08T05:53:23.108Z,42.71
2022-08-08T05:54:28.284Z,41.06
2022-08-08T05:55:14.110Z,43.41
2022-08-08T05:56:15.218Z,42.18
2022-08-08T05:57:12.866Z,43.56
2022-08-08T05:58:17.854Z,42.36
2022-08-08T05:59:14.069Z,41.92
2022-08-08T06:00:22.310Z,41.05
2022-08-08T06:01:13.821Z,41.81
2022-08-08T06:02:13.836Z,42.47
2022-08-08T06:03:17.362Z,41.59
2022-08-08T06:04:22.947Z,38.76
2022-08-08T06:05:32.816Z,40.20
2022-08-08T06:06:13.780Z,42.68
2022-08-08T06:07:12.784Z,40.16
2022-08-08T06:08:28.254Z,41.97
2022-08-08T06:09:59.799Z,39.70
2022-08-08T06:10:22.588Z,39.26
2022-08-08T06:11:16.581Z,40.57
2022-08-08T06:12:14.430Z,43.98
2022-08-08T06:13:12.727Z,40.45
2022-08-08T06:14:13.097Z,41.24
2022-08-08T06:15:16.106Z,40.17
2022-08-08T06:16:12.714Z,41.33
2022-08-08T06:17:12.710Z,40.60
2022-08-08T06:18:20.764Z,40.46
2022-08-08T06:19:16.431Z,40.56
2022-08-08T06:20:13.735Z,39.97
2022-08-08T06:21:32.413Z,39.94
2022-08-08T06:22:42.442Z,40.28
2022-08-08T06:23:15.923Z,42.53
2022-08-08T06:24:22.771Z,40.99
2022-08-08T06:25:13.821Z,39.14
2022-08-08T06:26:38.462Z,43.14
2022-08-08T06:27:13.648Z,40.27
2022-08-08T06:28:12.626Z,41.62
2022-08-08T06:29:49.224Z,41.16
2022-08-08T06:30:19.902Z,40.19
2022-08-08T06:31:15.432Z,42.20
2022-08-08T06:32:15.088Z,39.78
2022-08-08T06:33:13.120Z,39.04
2022-08-08T06:34:26.380Z,41.63
2022-08-08T06:36:07.567Z,41.38
2022-08-08T06:36:13.576Z,41.15
2022-08-08T06:37:24.101Z,41.85
2022-08-08T06:38:14.378Z,41.49
2022-08-08T06:39:12.585Z,43.17
2022-08-08T06:40:16.514Z,40.91
2022-08-08T06:41:13.335Z,40.68
2022-08-08T06:42:12.533Z,40.79
2022-08-08T06:43:12.520Z,41.54
2022-08-08T06:44:22.969Z,40.61
2022-08-08T06:45:13.519Z,39.83
2022-08-08T06:46:12.911Z,41.14
2022-08-08T06:47:12.500Z,38.85
2022-08-08T06:48:12.477Z,39.87
2022-08-08T06:49:12.477Z,41.53
2022-08-08T06:50:12.880Z,40.91
2022-08-08T06:51:13.506Z,41.99
2022-08-08T06:52:12.459Z,41.46
2022-08-08T06:53:17.547Z,42.22
2022-08-08T06:54:13.455Z,41.21
2022-08-08T06:55:12.429Z,39.23
2022-08-08T06:56:16.773Z,39.73
2022-08-08T06:57:12.421Z,42.22
2022-08-08T06:58:12.412Z,38.73
2022-08-08T06:59:12.635Z,39.14
2022-08-08T07:00:13.216Z,40.89
2022-08-08T07:02:18.032Z,42.06
2022-08-08T07:02:26.636Z,39.28
2022-08-08T07:03:52.303Z,40.15
2022-08-08T07:04:37.248Z,37.98
2022-08-08T07:05:20.614Z,42.64
2022-08-08T07:06:13.377Z,39.09
2022-08-08T07:07:12.630Z,38.00
2022-08-08T07:08:12.333Z,39.02
2022-08-08T07:09:15.105Z,40.11
2022-08-08T07:10:13.331Z,39.85
2022-08-08T07:11:22.611Z,41.51
2022-08-08T07:12:13.308Z,40.81
2022-08-08T07:13:12.310Z,42.01
2022-08-08T07:14:12.299Z,41.81
2022-08-08T07:15:31.853Z,41.33
2022-08-08T07:16:14.132Z,38.12
2022-08-08T07:17:14.580Z,39.74
2022-08-08T07:18:35.593Z,38.55
2022-08-08T07:19:13.290Z,38.31
2022-08-08T07:20:12.249Z,39.36
2022-08-08T07:21:18.898Z,40.83
2022-08-08T07:22:18.659Z,41.41
2022-08-08T07:23:13.239Z,40.87
2022-08-08T07:24:12.719Z,39.03
2022-08-08T07:25:17.097Z,40.03
2022-08-08T07:26:13.247Z,39.81
2022-08-08T07:27:12.201Z,39.91
2022-08-08T07:28:19.781Z,41.64
2022-08-08T07:29:55.389Z,39.76
2022-08-08T07:30:16.767Z,40.13
2022-08-08T07:31:14.245Z,39.05
2022-08-08T07:32:15.939Z,42.24
2022-08-08T07:33:17.661Z,37.31
2022-08-08T07:34:20.500Z,40.40
2022-08-08T07:35:14.043Z,38.26
2022-08-08T07:36:12.119Z,39.91
2022-08-08T07:37:13.513Z,38.72
2022-08-08T07:38:20.409Z,39.29
2022-08-08T07:39:13.354Z,45.13
2022-08-08T07:40:12.179Z,40.37
2022-08-08T07:41:23.637Z,43.25
2022-08-08T07:42:13.126Z,39.02
2022-08-08T07:43:13.073Z,38.89
2022-08-08T07:44:37.594Z,39.77
2022-08-08T07:45:14.066Z,43.78
2022-08-08T07:46:23.529Z,38.58
2022-08-08T07:47:13.099Z,41.55
2022-08-08T07:48:12.050Z,39.56
2022-08-08T07:49:12.412Z,39.41
2022-08-08T07:50:12.041Z,40.06
2022-08-08T07:51:23.012Z,41.84
2022-08-08T07:52:26.722Z,40.73
2022-08-08T07:53:13.005Z,37.61
2022-08-08T07:54:24.152Z,39.26
2022-08-08T07:55:13.012Z,38.43
2022-08-08T07:56:11.986Z,40.43
2022-08-08T07:57:11.981Z,40.10
2022-08-08T07:58:13.027Z,39.02
2022-08-08T07:59:14.209Z,40.52
2022-08-08T08:00:16.236Z,41.66
2022-08-08T08:01:12.009Z,39.89
2022-08-08T08:02:35.781Z,40.61
2022-08-08T08:03:20.400Z,40.17
2022-08-08T08:04:13.987Z,39.72
2022-08-08T08:05:14.831Z,39.68
2022-08-08T08:06:11.919Z,38.74
2022-08-08T08:07:12.031Z,40.52
2022-08-08T08:08:11.960Z,39.70
2022-08-08T08:09:11.905Z,38.44
2022-08-08T08:10:12.592Z,41.12
2022-08-08T08:11:11.880Z,38.34
2022-08-08T08:12:31.353Z,39.67
2022-08-08T08:13:17.959Z,39.28
2022-08-08T08:14:12.918Z,39.34
2022-08-08T08:15:11.870Z,38.55
2022-08-08T08:16:11.960Z,41.85
2022-08-08T08:17:11.842Z,39.58
2022-08-08T08:18:14.304Z,38.53
2022-08-08T08:19:12.833Z,44.04
2022-08-08T08:20:11.831Z,41.93
2022-08-08T08:21:14.593Z,38.51
2022-08-08T08:22:12.801Z,38.98
2022-08-08T08:23:11.796Z,36.43
2022-08-08T08:24:11.889Z,40.85
2022-08-08T08:25:11.781Z,40.62
2022-08-08T08:26:12.771Z,39.32
2022-08-08T08:27:12.762Z,39.73
2022-08-08T08:28:16.908Z,38.50
2022-08-08T08:29:16.511Z,40.01
2022-08-08T08:30:12.743Z,37.99
2022-08-08T08:31:11.739Z,39.43
2022-08-08T08:32:11.724Z,39.22
2022-08-08T08:33:11.830Z,38.59
2022-08-08T08:34:11.807Z,38.74
2022-08-08T08:35:15.185Z,40.77
2022-08-08T08:36:19.593Z,37.51
2022-08-08T08:37:15.494Z,38.16
2022-08-08T08:38:17.692Z,37.20
2022-08-08T08:39:17.563Z,39.14
2022-08-08T08:40:13.129Z,42.52
2022-08-08T08:41:17.163Z,36.74
2022-08-08T08:42:13.283Z,36.89
2022-08-08T08:43:15.403Z,39.30
2022-08-08T08:44:13.365Z,37.50
2022-08-08T08:45:21.137Z,38.48
2022-08-08T08:46:12.626Z,40.23
2022-08-08T08:47:12.633Z,37.90
2022-08-08T08:48:19.159Z,36.45
2022-08-08T08:49:12.614Z,39.81
2022-08-08T08:50:31.785Z,39.77
2022-08-08T08:51:12.597Z,36.31
2022-08-08T08:52:11.584Z,57.48
2022-08-08T08:53:55.572Z,37.63
2022-08-08T08:54:12.580Z,40.34
2022-08-08T08:55:12.213Z,38.08
2022-08-08T08:56:11.568Z,38.41
2022-08-08T08:57:15.480Z,36.71
2022-08-08T08:58:11.575Z,35.77
2022-08-08T08:59:15.281Z,39.42
2022-08-08T09:00:17.014Z,38.88
2022-08-08T09:01:13.366Z,35.41
2022-08-08T09:02:11.999Z,37.45
2022-08-08T09:03:11.524Z,37.47
2022-08-08T09:04:30.929Z,38.08
2022-08-08T09:05:28.857Z,38.15
2022-08-08T09:06:26.549Z,35.97
2022-08-08T09:07:13.556Z,35.92
2022-08-08T09:08:13.045Z,41.37
2022-08-08T09:09:25.918Z,39.16
2022-08-08T09:10:17.349Z,34.15
2022-08-08T09:11:13.468Z,36.94
2022-08-08T09:12:11.493Z,36.03
2022-08-08T09:13:11.476Z,35.30
2022-08-08T09:14:11.448Z,37.78
2022-08-08T09:15:11.429Z,38.65
2022-08-08T09:16:11.618Z,38.29
2022-08-08T09:17:17.398Z,35.91
2022-08-08T09:18:13.197Z,35.34
2022-08-08T09:19:11.414Z,32.80
2022-08-08T09:21:56.793Z,36.50
2022-08-08T09:21:58.398Z,34.45
2022-08-08T09:22:12.406Z,36.96
2022-08-08T09:23:17.496Z,38.58
2022-08-08T09:24:13.511Z,38.00
2022-08-08T09:25:11.362Z,38.49
2022-08-08T09:26:12.623Z,36.42
2022-08-08T09:27:20.274Z,36.04
2022-08-08T09:28:12.345Z,35.48
2022-08-08T09:29:12.392Z,38.04
2022-08-08T09:30:14.697Z,37.60
2022-08-08T09:31:13.140Z,37.85
2022-08-08T09:32:11.907Z,36.91
2022-08-08T09:33:55.493Z,36.57
2022-08-08T09:34:30.350Z,38.68
2022-08-08T09:35:15.980Z,36.53
2022-08-08T09:36:11.276Z,39.51
2022-08-08T09:37:37.406Z,38.50
2022-08-08T09:38:17.667Z,33.69
2022-08-08T09:39:18.968Z,36.99
2022-08-08T09:40:11.912Z,37.99
2022-08-08T09:41:11.248Z,42.89
2022-08-08T09:42:21.153Z,36.32
2022-08-08T09:43:16.403Z,34.91
2022-08-08T09:44:12.922Z,37.22
2022-08-08T09:45:20.876Z,34.72
2022-08-08T09:46:16.968Z,33.47
2022-08-08T09:48:04.625Z,34.83
2022-08-08T09:48:20.975Z,34.45
2022-08-08T09:49:41.729Z,33.82
2022-08-08T09:50:14.101Z,35.44
2022-08-08T09:51:12.285Z,35.53
2022-08-08T09:52:16.230Z,34.29
2022-08-08T09:53:32.909Z,37.17
2022-08-08T09:54:18.765Z,34.56
2022-08-08T09:55:17.122Z,33.29
2022-08-08T09:56:12.486Z,34.53
2022-08-08T09:57:17.174Z,34.45
2022-08-08T09:58:14.332Z,33.69
2022-08-08T09:59:42.800Z,36.58
2022-08-08T10:01:14.558Z,34.61
2022-08-08T10:02:12.982Z,34.65
2022-08-08T10:03:11.102Z,36.48
2022-08-08T10:04:11.084Z,35.50
2022-08-08T10:05:14.797Z,34.31
2022-08-08T10:06:11.112Z,35.73
2022-08-08T10:07:11.064Z,39.59
2022-08-08T10:08:11.056Z,33.10
2022-08-08T10:09:11.053Z,36.73
2022-08-08T10:10:11.048Z,38.10
2022-08-08T10:12:22.468Z,35.55
2022-08-08T10:12:26.147Z,34.60
2022-08-08T10:13:14.786Z,31.51
2022-08-08T10:14:28.382Z,33.23
2022-08-08T10:15:17.543Z,36.38
2022-08-08T10:16:11.994Z,35.21
2022-08-08T10:17:56.853Z,31.16
2022-08-08T10:18:17.778Z,31.49
2022-08-08T10:19:13.014Z,31.34
2022-08-08T10:20:10.994Z,33.65
2022-08-08T10:21:25.596Z,38.46
2022-08-08T10:22:12.005Z,35.43
2022-08-08T10:23:13.182Z,33.68
2022-08-08T10:24:11.938Z,34.37
2022-08-08T10:25:15.817Z,34.40
2022-08-08T10:26:25.878Z,33.29
2022-08-08T10:27:12.987Z,31.96
2022-08-08T10:28:15.158Z,34.98
2022-08-08T10:29:11.490Z,36.32
2022-08-08T10:30:16.319Z,34.36
2022-08-08T10:31:11.912Z,34.29
2022-08-08T10:32:10.891Z,32.29
2022-08-08T10:33:12.288Z,31.44
2022-08-08T10:34:19.964Z,31.96
2022-08-08T10:36:01.905Z,33.33
2022-08-08T10:36:22.419Z,29.03
2022-08-08T10:37:11.849Z,33.23
2022-08-08T10:38:13.725Z,32.87
2022-08-08T10:39:10.868Z,32.76
2022-08-08T10:40:10.994Z,34.02
2022-08-08T10:41:11.818Z,38.31
2022-08-08T10:42:16.889Z,33.66
2022-08-08T10:43:11.836Z,37.94
2022-08-08T10:44:10.797Z,34.65
2022-08-08T10:45:10.821Z,35.12
2022-08-08T10:46:26.060Z,36.36
2022-08-08T10:47:11.794Z,31.62
2022-08-08T10:48:10.799Z,32.35
2022-08-08T10:49:26.659Z,34.96
2022-08-08T10:50:15.683Z,34.15
2022-08-08T10:51:10.767Z,31.41
2022-08-08T10:52:10.743Z,33.20
2022-08-08T10:53:12.648Z,33.48
2022-08-08T10:54:10.765Z,32.11
2022-08-08T10:55:10.735Z,38.36
2022-08-08T10:56:10.729Z,36.87
2022-08-08T10:57:11.714Z,33.63
2022-08-08T10:58:10.731Z,28.97
2022-08-08T10:59:14.616Z,30.58
2022-08-08T11:00:10.698Z,33.92
2022-08-08T11:01:11.088Z,33.24
2022-08-08T11:02:11.796Z,31.57
2022-08-08T11:03:10.713Z,35.06
2022-08-08T11:04:12.036Z,33.67
2022-08-08T11:05:14.737Z,35.17
2022-08-08T11:06:12.469Z,33.67
2022-08-08T11:07:39.000Z,33.77
2022-08-08T11:08:38.625Z,31.58
2022-08-08T11:09:19.347Z,30.07
2022-08-08T11:10:11.641Z,31.59
2022-08-08T11:11:32.631Z,29.46
2022-08-08T11:12:13.823Z,29.98
2022-08-08T11:13:28.797Z,31.37
2022-08-08T11:14:16.313Z,29.77
2022-08-08T11:15:10.612Z,31.80
2022-08-08T11:16:11.550Z,31.75
2022-08-08T11:17:14.887Z,30.97
2022-08-08T11:18:10.618Z,30.03
2022-08-08T11:19:10.880Z,32.30
2022-08-08T11:20:12.502Z,32.55
2022-08-08T11:21:19.522Z,33.52
2022-08-08T11:22:11.569Z,31.13
2022-08-08T11:23:11.610Z,30.58
2022-08-08T11:24:10.554Z,30.48
2022-08-08T11:25:14.231Z,32.11
2022-08-08T11:26:10.577Z,31.44
2022-08-08T11:27:20.247Z,30.21
2022-08-08T11:28:11.517Z,29.50
2022-08-08T11:29:10.552Z,30.88
2022-08-08T11:30:24.099Z,31.97
2022-08-08T11:31:12.518Z,32.94
2022-08-08T11:32:10.497Z,30.39
2022-08-08T11:33:12.409Z,31.28
2022-08-08T11:34:24.082Z,31.50
2022-08-08T11:35:27.091Z,33.01
2022-08-08T11:36:13.277Z,33.93
2022-08-08T11:37:15.191Z,35.47
2022-08-08T11:38:36.925Z,30.98
2022-08-08T11:39:12.975Z,31.58
2022-08-08T11:40:10.483Z,34.82
2022-08-08T11:41:10.560Z,32.30
2022-08-08T11:42:10.459Z,31.61
2022-08-08T11:43:11.461Z,33.10
2022-08-08T11:44:10.447Z,28.61
2022-08-08T11:45:10.422Z,34.96
2022-08-08T11:46:14.275Z,30.78
2022-08-08T11:47:12.873Z,32.12
2022-08-08T11:48:10.389Z,28.37
2022-08-08T11:49:11.447Z,34.05
2022-08-08T11:50:10.394Z,30.92
2022-08-08T11:51:37.934Z,30.27
2022-08-08T11:52:18.762Z,30.69
2022-08-08T11:53:11.369Z,31.45
2022-08-08T11:54:31.768Z,32.15
2022-08-08T11:55:11.383Z,30.72
2022-08-08T11:56:10.340Z,32.02
2022-08-08T11:57:14.135Z,31.39
2022-08-08T11:58:15.111Z,33.72
2022-08-08T11:59:11.311Z,35.40
2022-08-08T12:00:10.588Z,30.97
2022-08-08T12:01:12.192Z,31.34
2022-08-08T12:02:31.310Z,30.45
2022-08-08T12:03:12.379Z,29.10
2022-08-08T12:04:10.291Z,30.54
2022-08-08T12:05:13.075Z,34.24
2022-08-08T12:06:10.273Z,31.89
2022-08-08T12:07:17.834Z,57.53
2022-08-08T12:08:11.287Z,53.21
2022-08-08T12:09:17.232Z,52.61
2022-08-08T12:10:11.335Z,52.72
2022-08-08T12:11:10.261Z,53.00
2022-08-08T12:12:10.225Z,52.93
2022-08-08T12:13:10.246Z,52.93
2022-08-08T12:14:11.685Z,52.99
2022-08-08T12:15:10.262Z,52.75
2022-08-08T12:16:10.187Z,58.61
2022-08-08T12:17:10.871Z,39.74
2022-08-08T12:18:10.174Z,36.61
2022-08-08T12:19:10.188Z,33.13
2022-08-08T12:20:10.168Z,31.55
2022-08-08T12:21:10.184Z,29.71
2022-08-08T12:22:13.803Z,28.68
2022-08-08T12:23:14.005Z,28.75
2022-08-08T12:24:11.136Z,32.96
2022-08-08T12:25:10.128Z,30.33
2022-08-08T12:26:10.137Z,29.06
2022-08-08T12:27:11.114Z,31.14
2022-08-08T12:28:15.361Z,29.77
2022-08-08T12:29:11.092Z,30.72
2022-08-08T12:30:18.521Z,30.05
2022-08-08T12:31:11.141Z,31.01
2022-08-08T12:32:13.485Z,29.78
2022-08-08T12:33:11.059Z,31.50
2022-08-08T12:34:10.055Z,33.95
2022-08-08T12:35:17.946Z,33.22
2022-08-08T12:36:11.068Z,32.03
2022-08-08T12:37:11.347Z,33.76
2022-08-08T12:38:10.543Z,33.57
2022-08-08T12:39:10.028Z,33.04
2022-08-08T12:40:10.063Z,34.05
2022-08-08T12:41:33.977Z,32.91
2022-08-08T12:42:20.797Z,29.45
2022-08-08T12:43:10.971Z,33.71
2022-08-08T12:44:09.983Z,32.51
2022-08-08T12:45:53.710Z,29.66
2022-08-08T12:46:10.962Z,33.19
2022-08-08T12:47:12.909Z,31.83
2022-08-08T12:48:36.227Z,31.24
2022-08-08T12:49:43.665Z,31.98
2022-08-08T12:50:11.945Z,29.25
2022-08-08T12:51:11.414Z,32.33
2022-08-08T12:52:27.980Z,33.25